Poio, Spain
Current Conditions -  °F | °C
As of 5:30 PM on Wednesday 26 Nov 2014 (Local Time) from LEVX Reporting Station
Few Clouds Few Clouds  
Wind Chill: 12°   Ceiling: Unl
Heat Index: 12°   Visibility: 6mi
Dew Point:   Wind: 1mph
Humidity: 77%   Direction: NA
Pressure: 29.77"   Gusts: NA
Location:  42.44°N, 8.71°W
Report Text: LEVX 261630Z VRB01KT 9999 FEW030 12/08 Q1008 NOSIG
Loading
Personal Weather Stations






























Interactive Weather Map New forecast layout! Learn more

10-Day Weather Forecast

Advertisements
Track Severe Weather on mobile